sensor_id;sensor_type;location;lat;lon;timestamp;P1;durP1;ratioP1;P2;durP2;ratioP2
56039;SDS011;43937;41.366;2.072;2023-07-31T00:01:20;8.98;;;1.80;;
56039;SDS011;43937;41.366;2.072;2023-07-31T00:03:45;8.85;;;1.50;;
56039;SDS011;43937;41.366;2.072;2023-07-31T00:06:11;4.28;;;1.50;;
56039;SDS011;43937;41.366;2.072;2023-07-31T00:08:37;6.68;;;1.50;;
56039;SDS011;43937;41.366;2.072;2023-07-31T00:11:02;7.25;;;1.50;;
56039;SDS011;43937;41.366;2.072;2023-07-31T00:13:28;8.15;;;1.70;;
56039;SDS011;43937;41.366;2.072;2023-07-31T00:15:53;7.10;;;1.48;;
56039;SDS011;43937;41.366;2.072;2023-07-31T00:18:19;8.07;;;1.55;;
56039;SDS011;43937;41.366;2.072;2023-07-31T00:20:44;8.63;;;1.70;;
56039;SDS011;43937;41.366;2.072;2023-07-31T00:23:09;9.18;;;1.63;;
56039;SDS011;43937;41.366;2.072;2023-07-31T00:25:35;6.95;;;1.52;;
56039;SDS011;43937;41.366;2.072;2023-07-31T00:28:00;6.75;;;1.58;;
56039;SDS011;43937;41.366;2.072;2023-07-31T00:30:26;4.05;;;1.20;;
56039;SDS011;43937;41.366;2.072;2023-07-31T00:32:52;6.88;;;1.60;;
56039;SDS011;43937;41.366;2.072;2023-07-31T00:35:17;6.57;;;1.50;;
56039;SDS011;43937;41.366;2.072;2023-07-31T00:37:43;4.53;;;1.30;;
56039;SDS011;43937;41.366;2.072;2023-07-31T00:40:08;6.15;;;1.15;;
56039;SDS011;43937;41.366;2.072;2023-07-31T00:42:34;8.50;;;1.65;;
56039;SDS011;43937;41.366;2.072;2023-07-31T00:44:59;7.00;;;1.40;;
56039;SDS011;43937;41.366;2.072;2023-07-31T00:47:25;4.18;;;1.45;;
56039;SDS011;43937;41.366;2.072;2023-07-31T00:49:51;8.23;;;1.30;;
56039;SDS011;43937;41.366;2.072;2023-07-31T00:52:17;9.60;;;1.20;;
56039;SDS011;43937;41.366;2.072;2023-07-31T00:54:43;3.63;;;1.40;;
56039;SDS011;43937;41.366;2.072;2023-07-31T00:57:08;4.07;;;1.17;;
56039;SDS011;43937;41.366;2.072;2023-07-31T00:59:34;8.13;;;1.58;;
56039;SDS011;43937;41.366;2.072;2023-07-31T01:02:00;11.48;;;1.75;;
56039;SDS011;43937;41.366;2.072;2023-07-31T01:04:26;5.72;;;1.20;;
56039;SDS011;43937;41.366;2.072;2023-07-31T01:06:55;8.00;;;1.50;;
56039;SDS011;43937;41.366;2.072;2023-07-31T01:09:29;6.80;;;1.55;;
56039;SDS011;43937;41.366;2.072;2023-07-31T01:11:57;10.43;;;1.70;;
56039;SDS011;43937;41.366;2.072;2023-07-31T01:14:25;4.82;;;1.25;;
56039;SDS011;43937;41.366;2.072;2023-07-31T01:16:50;7.40;;;1.23;;
56039;SDS011;43937;41.366;2.072;2023-07-31T01:19:17;4.63;;;1.45;;
56039;SDS011;43937;41.366;2.072;2023-07-31T01:27:25;5.30;;;1.23;;
56039;SDS011;43937;41.366;2.072;2023-07-31T01:30:00;7.10;;;1.20;;
56039;SDS011;43937;41.366;2.072;2023-07-31T01:32:36;6.85;;;1.30;;
56039;SDS011;43937;41.366;2.072;2023-07-31T01:35:07;4.33;;;1.23;;
56039;SDS011;43937;41.366;2.072;2023-07-31T01:37:33;9.27;;;1.20;;
56039;SDS011;43937;41.366;2.072;2023-07-31T01:39:59;3.65;;;1.10;;
56039;SDS011;43937;41.366;2.072;2023-07-31T01:42:24;2.47;;;1.08;;
56039;SDS011;43937;41.366;2.072;2023-07-31T01:44:50;6.00;;;1.30;;
56039;SDS011;43937;41.366;2.072;2023-07-31T01:47:15;4.40;;;1.60;;
56039;SDS011;43937;41.366;2.072;2023-07-31T01:49:41;3.15;;;0.93;;
56039;SDS011;43937;41.366;2.072;2023-07-31T01:52:06;3.33;;;1.30;;
56039;SDS011;43937;41.366;2.072;2023-07-31T01:54:32;3.55;;;1.00;;
56039;SDS011;43937;41.366;2.072;2023-07-31T01:56:58;4.97;;;1.13;;
56039;SDS011;43937;41.366;2.072;2023-07-31T01:59:24;4.07;;;1.30;;
56039;SDS011;43937;41.366;2.072;2023-07-31T02:01:49;4.97;;;1.20;;
56039;SDS011;43937;41.366;2.072;2023-07-31T02:04:14;4.35;;;1.33;;
56039;SDS011;43937;41.366;2.072;2023-07-31T02:06:40;5.25;;;1.20;;
56039;SDS011;43937;41.366;2.072;2023-07-31T02:09:05;3.25;;;1.35;;
56039;SDS011;43937;41.366;2.072;2023-07-31T02:11:31;4.70;;;1.40;;
56039;SDS011;43937;41.366;2.072;2023-07-31T02:13:56;2.95;;;1.25;;
56039;SDS011;43937;41.366;2.072;2023-07-31T02:16:22;2.53;;;1.10;;
56039;SDS011;43937;41.366;2.072;2023-07-31T02:18:47;4.38;;;1.13;;
56039;SDS011;43937;41.366;2.072;2023-07-31T02:21:13;2.75;;;0.90;;
56039;SDS011;43937;41.366;2.072;2023-07-31T02:23:38;2.40;;;0.95;;
56039;SDS011;43937;41.366;2.072;2023-07-31T02:26:03;8.63;;;1.10;;
56039;SDS011;43937;41.366;2.072;2023-07-31T02:28:29;2.83;;;0.90;;
56039;SDS011;43937;41.366;2.072;2023-07-31T02:30:55;3.58;;;0.85;;
56039;SDS011;43937;41.366;2.072;2023-07-31T02:33:20;1.23;;;0.80;;
56039;SDS011;43937;41.366;2.072;2023-07-31T02:35:46;2.50;;;0.90;;
56039;SDS011;43937;41.366;2.072;2023-07-31T02:38:11;3.22;;;1.08;;
56039;SDS011;43937;41.366;2.072;2023-07-31T02:40:36;3.60;;;1.10;;
56039;SDS011;43937;41.366;2.072;2023-07-31T02:43:02;9.52;;;1.40;;
56039;SDS011;43937;41.366;2.072;2023-07-31T02:45:27;3.63;;;1.02;;
56039;SDS011;43937;41.366;2.072;2023-07-31T02:47:53;2.15;;;1.15;;
56039;SDS011;43937;41.366;2.072;2023-07-31T02:50:18;4.35;;;1.00;;
56039;SDS011;43937;41.366;2.072;2023-07-31T02:52:44;2.25;;;0.90;;
56039;SDS011;43937;41.366;2.072;2023-07-31T02:55:09;2.67;;;1.00;;
56039;SDS011;43937;41.366;2.072;2023-07-31T02:57:34;4.25;;;1.10;;
56039;SDS011;43937;41.366;2.072;2023-07-31T03:00:00;3.80;;;1.00;;
56039;SDS011;43937;41.366;2.072;2023-07-31T03:02:26;3.45;;;1.48;;
56039;SDS011;43937;41.366;2.072;2023-07-31T03:04:51;4.57;;;1.00;;
56039;SDS011;43937;41.366;2.072;2023-07-31T03:07:17;5.93;;;1.20;;
56039;SDS011;43937;41.366;2.072;2023-07-31T03:09:42;2.03;;;1.00;;
56039;SDS011;43937;41.366;2.072;2023-07-31T03:12:08;4.03;;;1.20;;
56039;SDS011;43937;41.366;2.072;2023-07-31T03:14:34;2.75;;;1.00;;
56039;SDS011;43937;41.366;2.072;2023-07-31T03:16:59;4.45;;;1.30;;
56039;SDS011;43937;41.366;2.072;2023-07-31T03:19:25;2.78;;;1.10;;
56039;SDS011;43937;41.366;2.072;2023-07-31T03:21:50;2.72;;;1.30;;
56039;SDS011;43937;41.366;2.072;2023-07-31T03:24:15;4.00;;;1.20;;
56039;SDS011;43937;41.366;2.072;2023-07-31T03:26:41;6.40;;;2.75;;
56039;SDS011;43937;41.366;2.072;2023-07-31T03:29:07;6.10;;;1.45;;
56039;SDS011;43937;41.366;2.072;2023-07-31T03:31:33;3.33;;;1.23;;
56039;SDS011;43937;41.366;2.072;2023-07-31T03:33:58;3.28;;;1.42;;
56039;SDS011;43937;41.366;2.072;2023-07-31T03:36:23;5.25;;;1.38;;
56039;SDS011;43937;41.366;2.072;2023-07-31T03:38:50;5.60;;;1.30;;
56039;SDS011;43937;41.366;2.072;2023-07-31T03:41:16;4.47;;;1.40;;
56039;SDS011;43937;41.366;2.072;2023-07-31T03:43:42;3.53;;;1.50;;
56039;SDS011;43937;41.366;2.072;2023-07-31T03:46:07;2.67;;;1.23;;
56039;SDS011;43937;41.366;2.072;2023-07-31T03:48:32;2.38;;;1.15;;
56039;SDS011;43937;41.366;2.072;2023-07-31T03:50:58;1.48;;;0.98;;
56039;SDS011;43937;41.366;2.072;2023-07-31T03:53:23;2.17;;;1.10;;
56039;SDS011;43937;41.366;2.072;2023-07-31T03:55:49;2.30;;;1.25;;
56039;SDS011;43937;41.366;2.072;2023-07-31T03:58:14;3.90;;;1.30;;
56039;SDS011;43937;41.366;2.072;2023-07-31T04:00:40;3.22;;;1.27;;
56039;SDS011;43937;41.366;2.072;2023-07-31T04:03:07;3.65;;;1.23;;
56039;SDS011;43937;41.366;2.072;2023-07-31T04:05:32;4.25;;;1.17;;
56039;SDS011;43937;41.366;2.072;2023-07-31T04:07:58;2.05;;;1.02;;
56039;SDS011;43937;41.366;2.072;2023-07-31T04:10:23;2.25;;;1.13;;
56039;SDS011;43937;41.366;2.072;2023-07-31T04:12:49;6.28;;;1.60;;
56039;SDS011;43937;41.366;2.072;2023-07-31T04:15:14;3.17;;;1.63;;
56039;SDS011;43937;41.366;2.072;2023-07-31T04:17:40;2.80;;;1.48;;
56039;SDS011;43937;41.366;2.072;2023-07-31T04:20:05;4.30;;;1.50;;
56039;SDS011;43937;41.366;2.072;2023-07-31T04:22:31;5.07;;;1.55;;
56039;SDS011;43937;41.366;2.072;2023-07-31T04:24:57;3.88;;;1.40;;
56039;SDS011;43937;41.366;2.072;2023-07-31T04:27:22;2.70;;;1.27;;
56039;SDS011;43937;41.366;2.072;2023-07-31T04:29:48;2.60;;;1.20;;
56039;SDS011;43937;41.366;2.072;2023-07-31T04:32:13;3.42;;;1.50;;
56039;SDS011;43937;41.366;2.072;2023-07-31T04:34:41;5.75;;;1.30;;
56039;SDS011;43937;41.366;2.072;2023-07-31T04:37:07;3.88;;;1.52;;
56039;SDS011;43937;41.366;2.072;2023-07-31T04:39:32;3.05;;;1.20;;
56039;SDS011;43937;41.366;2.072;2023-07-31T04:41:57;4.07;;;1.80;;
56039;SDS011;43937;41.366;2.072;2023-07-31T04:44:23;3.58;;;1.92;;
56039;SDS011;43937;41.366;2.072;2023-07-31T04:46:48;4.80;;;1.95;;
56039;SDS011;43937;41.366;2.072;2023-07-31T04:49:14;7.20;;;1.75;;
56039;SDS011;43937;41.366;2.072;2023-07-31T04:51:39;3.78;;;1.75;;
56039;SDS011;43937;41.366;2.072;2023-07-31T04:54:04;3.95;;;1.25;;
56039;SDS011;43937;41.366;2.072;2023-07-31T04:56:30;2.95;;;1.38;;
56039;SDS011;43937;41.366;2.072;2023-07-31T04:58:55;3.42;;;1.30;;
56039;SDS011;43937;41.366;2.072;2023-07-31T05:01:21;6.03;;;1.42;;
56039;SDS011;43937;41.366;2.072;2023-07-31T05:03:46;4.20;;;1.50;;
56039;SDS011;43937;41.366;2.072;2023-07-31T05:06:12;6.10;;;1.65;;
56039;SDS011;43937;41.366;2.072;2023-07-31T05:08:39;5.30;;;1.75;;
56039;SDS011;43937;41.366;2.072;2023-07-31T05:11:05;5.72;;;1.75;;
56039;SDS011;43937;41.366;2.072;2023-07-31T05:13:30;7.53;;;2.42;;
56039;SDS011;43937;41.366;2.072;2023-07-31T05:15:55;7.85;;;2.97;;
56039;SDS011;43937;41.366;2.072;2023-07-31T05:18:21;6.05;;;2.75;;
56039;SDS011;43937;41.366;2.072;2023-07-31T05:20:46;9.80;;;2.65;;
56039;SDS011;43937;41.366;2.072;2023-07-31T05:23:12;9.68;;;2.42;;
56039;SDS011;43937;41.366;2.072;2023-07-31T05:25:37;9.00;;;2.22;;
56039;SDS011;43937;41.366;2.072;2023-07-31T05:28:03;5.47;;;2.13;;
56039;SDS011;43937;41.366;2.072;2023-07-31T05:30:29;5.55;;;1.92;;
56039;SDS011;43937;41.366;2.072;2023-07-31T05:32:56;4.47;;;1.90;;
56039;SDS011;43937;41.366;2.072;2023-07-31T05:35:21;5.47;;;2.00;;
56039;SDS011;43937;41.366;2.072;2023-07-31T05:37:47;6.90;;;2.40;;
56039;SDS011;43937;41.366;2.072;2023-07-31T05:40:12;5.75;;;1.90;;
56039;SDS011;43937;41.366;2.072;2023-07-31T05:42:37;8.07;;;1.85;;
56039;SDS011;43937;41.366;2.072;2023-07-31T05:45:04;3.72;;;1.83;;
56039;SDS011;43937;41.366;2.072;2023-07-31T05:47:30;4.80;;;1.70;;
56039;SDS011;43937;41.366;2.072;2023-07-31T05:49:56;9.38;;;1.80;;
56039;SDS011;43937;41.366;2.072;2023-07-31T05:52:21;2.45;;;1.50;;
56039;SDS011;43937;41.366;2.072;2023-07-31T05:54:47;5.32;;;1.40;;
56039;SDS011;43937;41.366;2.072;2023-07-31T05:57:12;2.78;;;1.60;;
56039;SDS011;43937;41.366;2.072;2023-07-31T05:59:38;12.95;;;8.60;;
56039;SDS011;43937;41.366;2.072;2023-07-31T06:02:03;6.07;;;3.70;;
56039;SDS011;43937;41.366;2.072;2023-07-31T06:04:29;4.18;;;1.65;;
56039;SDS011;43937;41.366;2.072;2023-07-31T06:06:54;3.08;;;1.88;;
56039;SDS011;43937;41.366;2.072;2023-07-31T06:09:20;4.70;;;1.50;;
56039;SDS011;43937;41.366;2.072;2023-07-31T06:11:46;4.20;;;1.40;;
56039;SDS011;43937;41.366;2.072;2023-07-31T06:14:11;7.82;;;1.45;;
56039;SDS011;43937;41.366;2.072;2023-07-31T06:16:37;4.25;;;1.60;;
56039;SDS011;43937;41.366;2.072;2023-07-31T06:19:02;6.80;;;1.45;;
56039;SDS011;43937;41.366;2.072;2023-07-31T06:21:28;3.03;;;1.50;;
56039;SDS011;43937;41.366;2.072;2023-07-31T06:23:54;3.20;;;1.60;;
56039;SDS011;43937;41.366;2.072;2023-07-31T06:26:20;5.88;;;1.50;;
56039;SDS011;43937;41.366;2.072;2023-07-31T06:28:45;3.53;;;1.55;;
56039;SDS011;43937;41.366;2.072;2023-07-31T06:31:11;6.65;;;1.30;;
56039;SDS011;43937;41.366;2.072;2023-07-31T06:33:37;3.88;;;1.50;;
56039;SDS011;43937;41.366;2.072;2023-07-31T06:36:02;6.55;;;1.95;;
56039;SDS011;43937;41.366;2.072;2023-07-31T06:38:27;5.47;;;1.60;;
56039;SDS011;43937;41.366;2.072;2023-07-31T06:40:53;5.18;;;1.30;;
56039;SDS011;43937;41.366;2.072;2023-07-31T06:43:18;6.47;;;1.85;;
56039;SDS011;43937;41.366;2.072;2023-07-31T06:45:44;4.57;;;1.55;;
56039;SDS011;43937;41.366;2.072;2023-07-31T06:48:10;38.47;;;2.30;;
56039;SDS011;43937;41.366;2.072;2023-07-31T06:50:36;10.02;;;2.40;;
56039;SDS011;43937;41.366;2.072;2023-07-31T06:53:02;6.63;;;1.70;;
56039;SDS011;43937;41.366;2.072;2023-07-31T06:55:27;7.60;;;1.52;;
56039;SDS011;43937;41.366;2.072;2023-07-31T06:57:54;5.13;;;1.15;;
56039;SDS011;43937;41.366;2.072;2023-07-31T07:00:21;6.13;;;1.50;;
56039;SDS011;43937;41.366;2.072;2023-07-31T07:02:47;4.75;;;1.42;;
56039;SDS011;43937;41.366;2.072;2023-07-31T07:05:13;3.65;;;1.35;;
56039;SDS011;43937;41.366;2.072;2023-07-31T07:07:40;3.03;;;1.20;;
56039;SDS011;43937;41.366;2.072;2023-07-31T07:10:07;4.20;;;1.42;;
56039;SDS011;43937;41.366;2.072;2023-07-31T07:12:33;7.00;;;0.90;;
56039;SDS011;43937;41.366;2.072;2023-07-31T07:14:59;6.50;;;1.15;;
56039;SDS011;43937;41.366;2.072;2023-07-31T07:17:26;4.82;;;1.20;;
56039;SDS011;43937;41.366;2.072;2023-07-31T07:19:52;2.80;;;1.00;;
56039;SDS011;43937;41.366;2.072;2023-07-31T07:22:18;5.13;;;1.20;;
56039;SDS011;43937;41.366;2.072;2023-07-31T07:24:43;4.05;;;0.95;;
56039;SDS011;43937;41.366;2.072;2023-07-31T07:27:09;4.47;;;1.10;;
56039;SDS011;43937;41.366;2.072;2023-07-31T07:29:34;4.30;;;1.10;;
56039;SDS011;43937;41.366;2.072;2023-07-31T07:32:00;5.78;;;1.48;;
56039;SDS011;43937;41.366;2.072;2023-07-31T07:34:26;7.07;;;1.23;;
56039;SDS011;43937;41.366;2.072;2023-07-31T07:36:52;4.22;;;0.90;;
56039;SDS011;43937;41.366;2.072;2023-07-31T07:39:18;4.35;;;0.88;;
56039;SDS011;43937;41.366;2.072;2023-07-31T07:41:44;4.53;;;1.30;;
56039;SDS011;43937;41.366;2.072;2023-07-31T07:44:09;8.45;;;1.30;;
56039;SDS011;43937;41.366;2.072;2023-07-31T07:46:35;3.72;;;1.00;;
56039;SDS011;43937;41.366;2.072;2023-07-31T07:49:00;7.07;;;1.10;;
56039;SDS011;43937;41.366;2.072;2023-07-31T07:51:26;6.10;;;1.38;;
56039;SDS011;43937;41.366;2.072;2023-07-31T07:53:51;5.20;;;1.10;;
56039;SDS011;43937;41.366;2.072;2023-07-31T07:56:17;4.65;;;0.85;;
56039;SDS011;43937;41.366;2.072;2023-07-31T07:58:42;3.00;;;0.70;;
56039;SDS011;43937;41.366;2.072;2023-07-31T08:01:08;5.93;;;1.23;;
56039;SDS011;43937;41.366;2.072;2023-07-31T08:03:33;5.60;;;1.20;;
56039;SDS011;43937;41.366;2.072;2023-07-31T08:05:59;7.95;;;1.20;;
56039;SDS011;43937;41.366;2.072;2023-07-31T08:08:25;5.60;;;1.30;;
56039;SDS011;43937;41.366;2.072;2023-07-31T08:10:50;5.50;;;1.30;;
56039;SDS011;43937;41.366;2.072;2023-07-31T08:13:16;5.22;;;1.60;;
56039;SDS011;43937;41.366;2.072;2023-07-31T08:15:41;5.55;;;1.27;;
56039;SDS011;43937;41.366;2.072;2023-07-31T08:18:07;4.68;;;1.33;;
56039;SDS011;43937;41.366;2.072;2023-07-31T08:20:33;5.22;;;1.63;;
56039;SDS011;43937;41.366;2.072;2023-07-31T08:22:59;6.05;;;1.48;;
56039;SDS011;43937;41.366;2.072;2023-07-31T08:25:24;8.75;;;1.75;;
56039;SDS011;43937;41.366;2.072;2023-07-31T08:27:50;5.63;;;1.60;;
56039;SDS011;43937;41.366;2.072;2023-07-31T08:30:17;5.10;;;2.38;;
56039;SDS011;43937;41.366;2.072;2023-07-31T08:32:43;6.00;;;2.05;;
56039;SDS011;43937;41.366;2.072;2023-07-31T08:35:09;3.83;;;1.80;;
56039;SDS011;43937;41.366;2.072;2023-07-31T08:37:34;4.45;;;1.50;;
56039;SDS011;43937;41.366;2.072;2023-07-31T08:40:00;4.80;;;1.58;;
56039;SDS011;43937;41.366;2.072;2023-07-31T08:42:25;4.78;;;1.80;;
56039;SDS011;43937;41.366;2.072;2023-07-31T08:44:51;5.68;;;1.60;;
56039;SDS011;43937;41.366;2.072;2023-07-31T08:47:17;7.35;;;1.50;;
56039;SDS011;43937;41.366;2.072;2023-07-31T08:49:45;11.52;;;1.90;;
56039;SDS011;43937;41.366;2.072;2023-07-31T08:52:12;6.82;;;2.45;;
56039;SDS011;43937;41.366;2.072;2023-07-31T08:54:38;10.73;;;2.05;;
56039;SDS011;43937;41.366;2.072;2023-07-31T08:57:05;4.47;;;1.83;;
56039;SDS011;43937;41.366;2.072;2023-07-31T08:59:31;7.07;;;1.80;;
56039;SDS011;43937;41.366;2.072;2023-07-31T09:02:03;7.03;;;2.10;;
56039;SDS011;43937;41.366;2.072;2023-07-31T09:04:32;5.38;;;2.10;;
56039;SDS011;43937;41.366;2.072;2023-07-31T09:07:00;6.90;;;1.80;;
56039;SDS011;43937;41.366;2.072;2023-07-31T09:09:29;4.93;;;1.88;;
56039;SDS011;43937;41.366;2.072;2023-07-31T09:11:57;11.23;;;1.83;;
56039;SDS011;43937;41.366;2.072;2023-07-31T09:14:23;9.95;;;1.73;;
56039;SDS011;43937;41.366;2.072;2023-07-31T09:16:59;7.35;;;1.80;;
56039;SDS011;43937;41.366;2.072;2023-07-31T09:19:35;6.35;;;2.10;;
56039;SDS011;43937;41.366;2.072;2023-07-31T09:22:04;6.38;;;1.80;;
56039;SDS011;43937;41.366;2.072;2023-07-31T09:24:32;6.07;;;2.33;;
56039;SDS011;43937;41.366;2.072;2023-07-31T09:26:59;6.65;;;1.92;;
56039;SDS011;43937;41.366;2.072;2023-07-31T09:29:25;5.72;;;1.67;;
56039;SDS011;43937;41.366;2.072;2023-07-31T09:31:52;6.25;;;1.80;;
56039;SDS011;43937;41.366;2.072;2023-07-31T09:34:18;5.78;;;1.65;;
56039;SDS011;43937;41.366;2.072;2023-07-31T09:36:45;6.90;;;1.58;;
56039;SDS011;43937;41.366;2.072;2023-07-31T09:39:12;10.38;;;1.73;;
56039;SDS011;43937;41.366;2.072;2023-07-31T09:41:39;6.53;;;1.63;;
56039;SDS011;43937;41.366;2.072;2023-07-31T09:44:06;4.90;;;2.00;;
56039;SDS011;43937;41.366;2.072;2023-07-31T09:46:34;6.47;;;1.80;;
56039;SDS011;43937;41.366;2.072;2023-07-31T09:49:04;9.63;;;2.40;;
56039;SDS011;43937;41.366;2.072;2023-07-31T09:51:36;7.13;;;2.38;;
56039;SDS011;43937;41.366;2.072;2023-07-31T09:54:09;4.65;;;2.58;;
56039;SDS011;43937;41.366;2.072;2023-07-31T09:56:38;4.03;;;2.10;;
56039;SDS011;43937;41.366;2.072;2023-07-31T09:59:08;4.97;;;2.13;;
56039;SDS011;43937;41.366;2.072;2023-07-31T10:01:36;7.45;;;2.10;;
56039;SDS011;43937;41.366;2.072;2023-07-31T10:04:03;5.10;;;2.30;;
56039;SDS011;43937;41.366;2.072;2023-07-31T10:06:30;12.07;;;2.30;;
56039;SDS011;43937;41.366;2.072;2023-07-31T10:08:57;7.07;;;2.65;;
56039;SDS011;43937;41.366;2.072;2023-07-31T10:11:24;7.18;;;2.22;;
56039;SDS011;43937;41.366;2.072;2023-07-31T10:13:52;5.20;;;2.00;;
56039;SDS011;43937;41.366;2.072;2023-07-31T10:16:18;7.40;;;2.13;;
56039;SDS011;43937;41.366;2.072;2023-07-31T10:18:45;7.68;;;2.08;;
56039;SDS011;43937;41.366;2.072;2023-07-31T10:21:11;5.68;;;1.98;;
56039;SDS011;43937;41.366;2.072;2023-07-31T10:23:37;8.55;;;1.80;;
56039;SDS011;43937;41.366;2.072;2023-07-31T10:26:04;5.97;;;2.03;;
56039;SDS011;43937;41.366;2.072;2023-07-31T10:28:32;8.65;;;1.83;;
56039;SDS011;43937;41.366;2.072;2023-07-31T10:30:58;6.28;;;1.88;;
56039;SDS011;43937;41.366;2.072;2023-07-31T10:33:24;4.47;;;1.90;;
56039;SDS011;43937;41.366;2.072;2023-07-31T10:35:50;3.45;;;1.48;;
56039;SDS011;43937;41.366;2.072;2023-07-31T10:38:18;5.18;;;1.65;;
56039;SDS011;43937;41.366;2.072;2023-07-31T10:40:44;5.60;;;1.65;;
56039;SDS011;43937;41.366;2.072;2023-07-31T10:43:10;9.10;;;1.75;;
56039;SDS011;43937;41.366;2.072;2023-07-31T10:45:50;4.97;;;1.58;;
56039;SDS011;43937;41.366;2.072;2023-07-31T10:48:16;5.50;;;1.50;;
56039;SDS011;43937;41.366;2.072;2023-07-31T10:50:48;7.45;;;2.03;;
56039;SDS011;43937;41.366;2.072;2023-07-31T10:53:24;10.98;;;1.63;;
56039;SDS011;43937;41.366;2.072;2023-07-31T10:55:51;7.60;;;2.03;;
56039;SDS011;43937;41.366;2.072;2023-07-31T10:58:18;7.88;;;1.90;;
56039;SDS011;43937;41.366;2.072;2023-07-31T11:00:45;7.00;;;1.90;;
56039;SDS011;43937;41.366;2.072;2023-07-31T11:03:14;5.25;;;1.60;;
56039;SDS011;43937;41.366;2.072;2023-07-31T11:06:00;7.22;;;2.08;;
56039;SDS011;43937;41.366;2.072;2023-07-31T11:13:26;15.85;;;2.05;;
56039;SDS011;43937;41.366;2.072;2023-07-31T11:15:56;5.10;;;2.00;;
56039;SDS011;43937;41.366;2.072;2023-07-31T11:18:21;8.57;;;1.83;;
56039;SDS011;43937;41.366;2.072;2023-07-31T11:20:47;11.00;;;1.90;;
56039;SDS011;43937;41.366;2.072;2023-07-31T11:23:15;8.60;;;2.35;;
56039;SDS011;43937;41.366;2.072;2023-07-31T11:25:42;6.35;;;2.15;;
56039;SDS011;43937;41.366;2.072;2023-07-31T11:28:11;7.38;;;2.03;;
56039;SDS011;43937;41.366;2.072;2023-07-31T11:30:38;6.83;;;2.00;;
56039;SDS011;43937;41.366;2.072;2023-07-31T11:33:06;4.43;;;2.00;;
56039;SDS011;43937;41.366;2.072;2023-07-31T11:35:36;7.05;;;2.33;;
56039;SDS011;43937;41.366;2.072;2023-07-31T11:38:11;4.93;;;1.85;;
56039;SDS011;43937;41.366;2.072;2023-07-31T11:40:44;8.25;;;2.28;;
56039;SDS011;43937;41.366;2.072;2023-07-31T11:43:10;9.85;;;2.50;;
56039;SDS011;43937;41.366;2.072;2023-07-31T11:45:39;7.40;;;2.10;;
56039;SDS011;43937;41.366;2.072;2023-07-31T11:48:04;12.00;;;2.20;;
56039;SDS011;43937;41.366;2.072;2023-07-31T11:50:30;7.82;;;1.75;;
56039;SDS011;43937;41.366;2.072;2023-07-31T11:53:01;10.63;;;2.30;;
56039;SDS011;43937;41.366;2.072;2023-07-31T11:55:29;9.45;;;2.35;;
56039;SDS011;43937;41.366;2.072;2023-07-31T11:57:56;8.57;;;2.03;;
56039;SDS011;43937;41.366;2.072;2023-07-31T12:00:23;10.85;;;2.53;;
56039;SDS011;43937;41.366;2.072;2023-07-31T12:02:50;8.98;;;2.45;;
56039;SDS011;43937;41.366;2.072;2023-07-31T12:05:16;10.88;;;2.50;;
56039;SDS011;43937;41.366;2.072;2023-07-31T12:07:42;10.82;;;2.40;;
56039;SDS011;43937;41.366;2.072;2023-07-31T12:10:31;6.53;;;2.15;;
56039;SDS011;43937;41.366;2.072;2023-07-31T12:13:08;7.25;;;2.17;;
56039;SDS011;43937;41.366;2.072;2023-07-31T12:18:07;14.88;;;3.03;;
56039;SDS011;43937;41.366;2.072;2023-07-31T12:20:35;8.48;;;2.22;;
56039;SDS011;43937;41.366;2.072;2023-07-31T12:23:00;9.25;;;2.10;;
56039;SDS011;43937;41.366;2.072;2023-07-31T12:25:30;10.63;;;3.05;;
56039;SDS011;43937;41.366;2.072;2023-07-31T12:27:56;9.95;;;1.90;;
56039;SDS011;43937;41.366;2.072;2023-07-31T12:30:56;9.55;;;2.13;;
56039;SDS011;43937;41.366;2.072;2023-07-31T12:33:14;8.00;;;1.98;;
56039;SDS011;43937;41.366;2.072;2023-07-31T12:35:41;16.40;;;2.38;;
56039;SDS011;43937;41.366;2.072;2023-07-31T12:38:08;9.07;;;2.25;;
56039;SDS011;43937;41.366;2.072;2023-07-31T12:40:35;10.98;;;2.20;;
56039;SDS011;43937;41.366;2.072;2023-07-31T12:43:02;7.25;;;2.17;;
56039;SDS011;43937;41.366;2.072;2023-07-31T12:45:31;11.63;;;2.50;;
56039;SDS011;43937;41.366;2.072;2023-07-31T12:48:00;12.18;;;2.47;;
56039;SDS011;43937;41.366;2.072;2023-07-31T12:50:26;9.45;;;2.45;;
56039;SDS011;43937;41.366;2.072;2023-07-31T12:52:55;13.20;;;2.47;;
56039;SDS011;43937;41.366;2.072;2023-07-31T12:55:21;6.82;;;2.05;;
56039;SDS011;43937;41.366;2.072;2023-07-31T12:57:47;8.75;;;2.40;;
56039;SDS011;43937;41.366;2.072;2023-07-31T13:00:13;7.75;;;2.30;;
56039;SDS011;43937;41.366;2.072;2023-07-31T13:02:39;7.63;;;2.70;;
56039;SDS011;43937;41.366;2.072;2023-07-31T13:05:04;10.63;;;2.42;;
56039;SDS011;43937;41.366;2.072;2023-07-31T13:07:30;8.68;;;2.50;;
56039;SDS011;43937;41.366;2.072;2023-07-31T13:09:55;10.00;;;3.00;;
56039;SDS011;43937;41.366;2.072;2023-07-31T13:12:21;8.65;;;3.05;;
56039;SDS011;43937;41.366;2.072;2023-07-31T13:14:46;12.25;;;3.10;;
56039;SDS011;43937;41.366;2.072;2023-07-31T13:17:12;11.38;;;3.13;;
56039;SDS011;43937;41.366;2.072;2023-07-31T13:19:37;20.00;;;3.33;;
56039;SDS011;43937;41.366;2.072;2023-07-31T13:22:03;9.32;;;2.70;;
56039;SDS011;43937;41.366;2.072;2023-07-31T13:24:29;11.90;;;2.72;;
56039;SDS011;43937;41.366;2.072;2023-07-31T13:26:55;14.07;;;3.08;;
56039;SDS011;43937;41.366;2.072;2023-07-31T13:29:21;10.65;;;2.70;;
56039;SDS011;43937;41.366;2.072;2023-07-31T13:31:47;8.82;;;2.10;;
56039;SDS011;43937;41.366;2.072;2023-07-31T13:34:12;7.45;;;2.28;;
56039;SDS011;43937;41.366;2.072;2023-07-31T13:36:38;9.40;;;3.03;;
56039;SDS011;43937;41.366;2.072;2023-07-31T13:39:03;12.93;;;2.80;;
56039;SDS011;43937;41.366;2.072;2023-07-31T13:41:29;12.60;;;3.08;;
56039;SDS011;43937;41.366;2.072;2023-07-31T13:43:54;13.52;;;2.33;;
56039;SDS011;43937;41.366;2.072;2023-07-31T13:46:20;9.05;;;2.97;;
56039;SDS011;43937;41.366;2.072;2023-07-31T13:48:45;10.48;;;2.80;;
56039;SDS011;43937;41.366;2.072;2023-07-31T13:51:10;15.68;;;3.28;;
56039;SDS011;43937;41.366;2.072;2023-07-31T13:53:36;12.40;;;3.00;;
56039;SDS011;43937;41.366;2.072;2023-07-31T13:56:01;18.85;;;3.10;;
56039;SDS011;43937;41.366;2.072;2023-07-31T13:58:27;12.70;;;3.22;;
56039;SDS011;43937;41.366;2.072;2023-07-31T14:00:52;7.70;;;3.03;;
56039;SDS011;43937;41.366;2.072;2023-07-31T14:03:18;15.20;;;3.53;;
56039;SDS011;43937;41.366;2.072;2023-07-31T14:05:43;11.38;;;3.22;;
56039;SDS011;43937;41.366;2.072;2023-07-31T14:08:09;11.63;;;3.00;;
56039;SDS011;43937;41.366;2.072;2023-07-31T14:10:34;14.50;;;3.40;;
56039;SDS011;43937;41.366;2.072;2023-07-31T14:13:00;11.38;;;3.22;;
56039;SDS011;43937;41.366;2.072;2023-07-31T14:15:25;11.38;;;2.80;;
56039;SDS011;43937;41.366;2.072;2023-07-31T14:17:50;11.18;;;3.05;;
56039;SDS011;43937;41.366;2.072;2023-07-31T14:20:16;8.32;;;2.90;;
56039;SDS011;43937;41.366;2.072;2023-07-31T14:22:41;15.90;;;2.80;;
56039;SDS011;43937;41.366;2.072;2023-07-31T14:25:07;13.95;;;3.17;;
56039;SDS011;43937;41.366;2.072;2023-07-31T14:27:35;11.38;;;3.45;;
56039;SDS011;43937;41.366;2.072;2023-07-31T14:30:00;10.32;;;3.22;;
56039;SDS011;43937;41.366;2.072;2023-07-31T14:32:26;8.98;;;2.78;;
56039;SDS011;43937;41.366;2.072;2023-07-31T14:34:51;15.95;;;3.20;;
56039;SDS011;43937;41.366;2.072;2023-07-31T14:37:17;16.50;;;3.33;;
56039;SDS011;43937;41.366;2.072;2023-07-31T14:39:42;11.60;;;3.00;;
56039;SDS011;43937;41.366;2.072;2023-07-31T14:42:08;14.13;;;2.92;;
56039;SDS011;43937;41.366;2.072;2023-07-31T14:44:34;12.15;;;3.30;;
56039;SDS011;43937;41.366;2.072;2023-07-31T14:46:59;10.35;;;2.67;;
56039;SDS011;43937;41.366;2.072;2023-07-31T14:49:25;12.18;;;3.30;;
56039;SDS011;43937;41.366;2.072;2023-07-31T14:51:52;8.63;;;3.03;;
56039;SDS011;43937;41.366;2.072;2023-07-31T14:54:18;13.00;;;3.40;;